Time;durP1;ratioP1;P1;durP2;ratioP2;P2;SDS_P1;SDS_P2;PMS_P1;PMS_P2;Temp;Humidity;BMP_temperature;BMP_pressure;BME280_temperature;BME280_humidity;BME280_pressure;Samples;Min_cycle;Max_cycle;Signal;HPM_P1;HPM_P2
2023/07/27 00:02:04;;;;;;;;;;;;;;;21.65;42.20;99980.47;5008028;28;7739;-74
2023/07/27 00:04:29;;;;;;;;;;;;;;;21.63;42.00;99980.47;5007015;28;6775;-72
2023/07/27 00:06:55;;;;;;;;;;;;;;;21.60;41.86;99980.50;5011170;28;6911;-72
2023/07/27 00:09:20;;;;;;;;;;;;;;;21.57;42.33;99966.59;4991272;28;7029;-73
2023/07/27 00:11:46;;;;;;;;;;;;;;;21.56;42.27;99975.31;5019092;28;6938;-73
2023/07/27 00:14:11;;;;;;;;;;;;;;;21.54;42.23;99977.91;5010733;28;7098;-73
2023/07/27 00:16:37;;;;;;;;;;;;;;;21.53;42.60;99965.75;5027499;28;6867;-72
2023/07/27 00:19:02;;;;;;;;;;;;;;;21.54;42.60;99972.69;5024965;28;6954;-72
2023/07/27 00:21:28;;;;;;;;;;;;;;;21.57;42.47;99975.28;5011039;28;6764;-73
2023/07/27 00:23:53;;;;;;;;;;;;;;;21.60;42.29;99969.19;5000173;28;6817;-72
2023/07/27 00:26:19;;;;;;;;;;;;;;;21.63;42.23;99971.78;5017972;28;6959;-73
2023/07/27 00:28:44;;;;;;;;;;;;;;;21.65;41.96;99964.84;5013167;28;6848;-73
2023/07/27 00:31:10;;;;;;;;;;;;;;;21.70;41.97;99970.06;5008701;28;6776;-73
2023/07/27 00:33:35;;;;;;;;;;;;;;;21.74;41.94;99962.22;5025788;28;6847;-73
2023/07/27 00:36:01;;;;;;;;;;;;;;;21.77;42.22;99956.09;5006035;28;6975;-73
2023/07/27 00:38:27;;;;;;;;;;;;;;;21.80;42.08;99957.81;5009483;28;6788;-72
2023/07/27 00:40:53;;;;;;;;;;;;;;;21.83;41.76;99963.03;5011634;28;6828;-72
2023/07/27 00:43:19;;;;;;;;;;;;;;;21.84;42.10;99956.94;5003344;28;6871;-72
2023/07/27 00:45:46;;;;;;;;;;;;;;;21.85;41.99;99956.06;5011701;28;7254;-72
2023/07/27 00:48:13;;;;;;;;;;;;;;;21.87;42.22;99959.53;5024105;28;7722;-73
2023/07/27 00:50:38;;;;;;;;;;;;;;;21.87;41.82;99951.72;5006160;28;6840;-73
2023/07/27 00:53:06;;;;;;;;;;;;;;;21.86;41.97;99945.59;4997879;28;6825;-73
2023/07/27 00:55:33;;;;;;;;;;;;;;;21.88;41.72;99945.59;5008346;28;6874;-73
2023/07/27 00:57:59;;;;;;;;;;;;;;;21.89;41.89;99943.00;5005703;28;7245;-73
2023/07/27 01:00:25;;;;;;;;;;;;;;;21.89;41.77;99934.28;5011052;28;6811;-72
2023/07/27 01:02:51;;;;;;;;;;;;;;;21.89;41.61;99942.13;5009593;28;6960;-73
2023/07/27 01:05:17;;;;;;;;;;;;;;;21.89;41.86;99939.50;5019918;28;7346;-73
2023/07/27 01:07:42;;;;;;;;;;;;;;;21.89;41.63;99932.56;5020072;28;6760;-73
2023/07/27 01:10:09;;;;;;;;;;;;;;;21.89;41.54;99937.78;5014330;28;6859;-73
2023/07/27 01:12:41;;;;;;;;;;;;;;;21.91;41.40;99927.31;5007668;28;6962;-72
2023/07/27 01:15:14;;;;;;;;;;;;;;;21.90;41.47;99930.81;5012547;28;6982;-72
2023/07/27 01:17:48;;;;;;;;;;;;;;;21.89;41.70;99926.47;5015469;28;6808;-73
2023/07/27 01:20:26;;;;;;;;;;;;;;;21.86;41.97;99929.09;5016731;28;7001;-73
2023/07/27 01:23:19;;;;;;;;;;;;;;;21.75;41.98;99924.81;5024661;28;6851;-73
2023/07/27 01:26:10;;;;;;;;;;;;;;;21.55;42.64;99932.72;5021061;28;7019;-73
2023/07/27 01:28:58;;;;;;;;;;;;;;;21.32;43.40;99928.47;5002802;28;6828;-73
2023/07/27 01:31:25;;;;;;;;;;;;;;;21.11;44.50;99934.63;5022578;28;7484;-74
2023/07/27 01:34:03;;;;;;;;;;;;;;;20.90;45.50;99928.59;5009445;28;6796;-72
2023/07/27 01:36:41;;;;;;;;;;;;;;;20.70;46.04;99925.13;5021523;28;6808;-72
2023/07/27 01:39:09;;;;;;;;;;;;;;;20.52;46.57;99929.47;5010206;28;7193;-72
2023/07/27 01:41:37;;;;;;;;;;;;;;;20.35;47.38;99924.28;5013535;28;7068;-73
2023/07/27 01:44:04;;;;;;;;;;;;;;;20.20;48.02;99926.00;4997456;28;7248;-73
2023/07/27 01:46:31;;;;;;;;;;;;;;;20.05;48.80;99921.66;5026447;28;6808;-73
2023/07/27 01:48:57;;;;;;;;;;;;;;;19.92;49.39;99914.69;5024642;28;6855;-73
2023/07/27 01:51:24;;;;;;;;;;;;;;;19.80;50.02;99912.91;5008864;28;6812;-72
2023/07/27 01:53:52;;;;;;;;;;;;;;;19.67;50.32;99909.41;5007671;28;6807;-74
2023/07/27 01:56:20;;;;;;;;;;;;;;;19.53;51.22;99906.75;5024653;28;6807;-72
2023/07/27 01:58:46;;;;;;;;;;;;;;;19.44;51.13;99912.81;5026207;28;7744;-74
2023/07/27 02:01:12;;;;;;;;;;;;;;;19.37;51.80;99911.03;5009412;28;6811;-73
2023/07/27 02:03:37;;;;;;;;;;;;;;;19.31;53.11;99901.50;5007799;28;6995;-72
2023/07/27 02:06:03;;;;;;;;;;;;;;;19.26;53.18;99892.81;5022978;28;6840;-74
2023/07/27 02:08:28;;;;;;;;;;;;;;;19.22;53.31;99886.75;5022417;28;6982;-72
2023/07/27 02:10:58;;;;;;;;;;;;;;;19.19;53.16;99891.91;5027055;28;7178;-73
2023/07/27 02:13:38;;;;;;;;;;;;;;;19.18;53.32;99889.31;4991779;28;6851;-73
2023/07/27 02:16:07;;;;;;;;;;;;;;;19.15;54.48;99891.03;5006661;28;7274;-73
2023/07/27 02:18:34;;;;;;;;;;;;;;;19.13;54.41;99879.78;5011419;28;6791;-73
2023/07/27 02:21:02;;;;;;;;;;;;;;;19.14;54.40;99878.06;5009101;28;6796;-73
2023/07/27 02:23:29;;;;;;;;;;;;;;;19.12;54.78;99879.75;5022548;28;6804;-73
2023/07/27 02:25:54;;;;;;;;;;;;;;;19.10;55.35;99877.16;5028546;28;6812;-73
2023/07/27 02:28:26;;;;;;;;;;;;;;;19.09;55.04;99870.25;5009161;28;7011;-72
2023/07/27 02:30:52;;;;;;;;;;;;;;;19.09;55.50;99869.34;5012023;28;6867;-73
2023/07/27 02:33:17;;;;;;;;;;;;;;;19.09;55.47;99864.16;5008267;28;6800;-76
2023/07/27 02:35:43;;;;;;;;;;;;;;;19.08;55.24;99858.13;5006549;28;6863;-72
2023/07/27 02:38:08;;;;;;;;;;;;;;;19.06;56.12;99848.59;5021378;28;7002;-73
2023/07/27 02:40:33;;;;;;;;;;;;;;;19.04;56.55;99855.50;5022225;28;6807;-74
2023/07/27 02:42:59;;;;;;;;;;;;;;;19.02;56.03;99845.09;5023786;28;6784;-72
2023/07/27 02:45:24;;;;;;;;;;;;;;;19.00;57.07;99839.88;5028751;28;6963;-73
2023/07/27 02:47:50;;;;;;;;;;;;;;;18.99;56.39;99840.72;5021851;28;6792;-73
2023/07/27 02:50:15;;;;;;;;;;;;;;;18.99;56.68;99835.53;5021374;28;7222;-73
2023/07/27 02:52:43;;;;;;;;;;;;;;;18.97;57.27;99832.06;5006568;28;6972;-73
2023/07/27 02:55:09;;;;;;;;;;;;;;;18.97;57.66;99833.78;5001145;28;7282;-73
2023/07/27 02:57:35;;;;;;;;;;;;;;;18.94;57.07;99833.78;5001892;28;6784;-73
2023/07/27 03:00:02;;;;;;;;;;;;;;;18.92;57.69;99825.97;5004164;28;7285;-74
2023/07/27 03:02:27;;;;;;;;;;;;;;;18.90;57.32;99822.50;5010840;28;6950;-74
2023/07/27 03:04:53;;;;;;;;;;;;;;;18.87;57.68;99817.31;5021207;28;6828;-73
2023/07/27 03:07:19;;;;;;;;;;;;;;;18.88;58.06;99816.44;5008058;28;6986;-73
2023/07/27 03:09:50;;;;;;;;;;;;;;;18.89;58.48;99820.78;5000313;28;6820;-74
2023/07/27 03:12:15;;;;;;;;;;;;;;;18.91;58.03;99813.84;4998737;28;6808;-74
2023/07/27 03:14:40;;;;;;;;;;;;;;;18.90;58.38;99806.94;4994251;28;7030;-74
2023/07/27 03:17:07;;;;;;;;;;;;;;;18.91;58.78;99806.06;5014775;28;6788;-74
2023/07/27 03:19:32;;;;;;;;;;;;;;;18.92;58.34;99805.19;5001255;28;6796;-74
2023/07/27 03:21:58;;;;;;;;;;;;;;;18.91;58.56;99800.88;5014697;28;6796;-74
2023/07/27 03:24:23;;;;;;;;;;;;;;;18.90;59.04;99790.50;4997903;28;7292;-74
2023/07/27 03:26:49;;;;;;;;;;;;;;;18.89;58.72;99794.81;4995995;28;6954;-74
2023/07/27 03:29:14;;;;;;;;;;;;;;;18.88;58.88;99782.69;4997571;28;6783;-74
2023/07/27 03:31:40;;;;;;;;;;;;;;;18.86;59.23;99784.41;4996639;28;6937;-74
2023/07/27 03:34:05;;;;;;;;;;;;;;;18.85;59.65;99767.13;5006981;28;8623;-75
2023/07/27 03:36:31;;;;;;;;;;;;;;;18.84;59.49;99771.41;5010933;28;6938;-74
2023/07/27 03:38:56;;;;;;;;;;;;;;;18.83;60.04;99763.63;4992513;28;6803;-73
2023/07/27 03:41:21;;;;;;;;;;;;;;;18.83;60.34;99763.63;4994533;28;7062;-74
2023/07/27 03:43:47;;;;;;;;;;;;;;;18.83;60.01;99761.03;4990884;28;6796;-74
2023/07/27 03:46:13;;;;;;;;;;;;;;;18.83;60.38;99748.03;4992928;28;8003;-75
2023/07/27 03:48:38;;;;;;;;;;;;;;;18.85;60.54;99746.34;4994575;28;6865;-75
2023/07/27 03:51:04;;;;;;;;;;;;;;;18.85;60.33;99736.81;4990943;28;7087;-75
2023/07/27 03:53:30;;;;;;;;;;;;;;;18.86;60.58;99733.34;4993254;28;7163;-75
2023/07/27 03:55:56;;;;;;;;;;;;;;;18.84;60.72;99724.69;5012558;28;7237;-75
2023/07/27 03:58:22;;;;;;;;;;;;;;;18.82;60.90;99717.75;5006527;28;6831;-74
2023/07/27 04:00:47;;;;;;;;;;;;;;;18.80;60.95;99715.19;4999542;28;7265;-73
2023/07/27 04:03:13;;;;;;;;;;;;;;;18.79;61.09;99709.97;4995939;28;6796;-73
2023/07/27 04:05:38;;;;;;;;;;;;;;;18.78;61.49;99713.44;5012059;28;6844;-75
2023/07/27 04:08:04;;;;;;;;;;;;;;;18.76;61.74;99702.19;5005252;28;7431;-73
2023/07/27 04:10:30;;;;;;;;;;;;;;;18.73;61.50;99701.31;5010113;28;6808;-74
2023/07/27 04:12:55;;;;;;;;;;;;;;;18.70;61.47;99695.25;5011197;28;6963;-74
2023/07/27 04:15:21;;;;;;;;;;;;;;;18.68;61.99;99695.22;4999382;28;7280;-74
2023/07/27 04:17:46;;;;;;;;;;;;;;;18.65;61.63;99684.84;4999435;28;6856;-74
2023/07/27 04:20:12;;;;;;;;;;;;;;;18.64;61.95;99685.72;5012738;28;6796;-74
2023/07/27 04:22:37;;;;;;;;;;;;;;;18.62;62.12;99687.41;5016553;28;7153;-73
2023/07/27 04:25:03;;;;;;;;;;;;;;;18.60;62.44;99679.66;5000214;28;6946;-74
2023/07/27 04:27:28;;;;;;;;;;;;;;;18.60;62.20;99664.06;5014602;28;6792;-73
2023/07/27 04:29:54;;;;;;;;;;;;;;;18.62;62.54;99665.81;5018838;28;6783;-74
2023/07/27 04:32:19;;;;;;;;;;;;;;;18.64;62.02;99659.75;4992106;28;7694;-73
2023/07/27 04:34:45;;;;;;;;;;;;;;;18.67;62.47;99666.66;5013821;28;7022;-75
2023/07/27 04:37:10;;;;;;;;;;;;;;;18.69;62.29;99665.81;4984229;28;8427;-73
2023/07/27 04:39:36;;;;;;;;;;;;;;;18.71;62.44;99669.28;4997360;28;6795;-74
2023/07/27 04:42:01;;;;;;;;;;;;;;;18.73;62.40;99659.78;5016464;28;7283;-73
2023/07/27 04:44:27;;;;;;;;;;;;;;;18.76;62.72;99663.25;5009203;28;6795;-73
2023/07/27 04:46:53;;;;;;;;;;;;;;;18.77;62.77;99652.84;4994203;28;7666;-73
2023/07/27 04:49:19;;;;;;;;;;;;;;;18.78;62.74;99651.13;4997334;28;7258;-73
2023/07/27 04:51:45;;;;;;;;;;;;;;;18.79;62.87;99650.25;5010703;28;7233;-73
2023/07/27 04:54:11;;;;;;;;;;;;;;;18.80;63.34;99650.28;5011406;28;7112;-73
2023/07/27 04:56:36;;;;;;;;;;;;;;;18.83;63.64;99644.22;5014566;28;6991;-73
2023/07/27 04:59:02;;;;;;;;;;;;;;;18.86;63.33;99642.47;5004699;28;6792;-73
2023/07/27 05:01:27;;;;;;;;;;;;;;;18.90;63.54;99634.72;5011082;28;7264;-73
2023/07/27 05:03:52;;;;;;;;;;;;;;;18.91;63.47;99639.06;4977536;28;7018;-73
2023/07/27 05:06:18;;;;;;;;;;;;;;;18.92;63.51;99633.84;5010360;28;6784;-73
2023/07/27 05:08:43;;;;;;;;;;;;;;;18.93;63.93;99627.81;4996626;28;6860;-72
2023/07/27 05:11:10;;;;;;;;;;;;;;;18.96;63.58;99630.41;4995501;28;6783;-73
2023/07/27 05:13:36;;;;;;;;;;;;;;;18.98;63.52;99630.41;4977493;28;6994;-72
2023/07/27 05:16:02;;;;;;;;;;;;;;;18.99;64.05;99630.41;4997814;28;6963;-73
2023/07/27 05:18:28;;;;;;;;;;;;;;;19.01;63.79;99622.66;5005191;28;6823;-73
2023/07/27 05:20:54;;;;;;;;;;;;;;;19.03;64.29;99620.91;4982162;28;6984;-73
2023/07/27 05:23:19;;;;;;;;;;;;;;;19.06;64.06;99620.06;4997499;28;6939;-73
2023/07/27 05:25:46;;;;;;;;;;;;;;;19.09;63.73;99614.84;5001128;28;6863;-73
2023/07/27 05:28:12;;;;;;;;;;;;;;;19.11;63.58;99608.81;4997801;28;6926;-73
2023/07/27 05:30:37;;;;;;;;;;;;;;;19.13;63.64;99606.22;4988663;28;6783;-73
2023/07/27 05:33:03;;;;;;;;;;;;;;;19.15;64.25;99599.28;4984196;28;7279;-73
2023/07/27 05:35:29;;;;;;;;;;;;;;;19.17;64.09;99592.34;4993956;28;7263;-72
2023/07/27 05:37:54;;;;;;;;;;;;;;;19.18;64.42;99595.81;4994226;28;7708;-73
2023/07/27 05:40:20;;;;;;;;;;;;;;;19.22;63.98;99598.44;5008496;28;7185;-73
2023/07/27 05:42:45;;;;;;;;;;;;;;;19.24;64.25;99596.69;5011509;28;8080;-73
2023/07/27 05:45:11;;;;;;;;;;;;;;;19.26;64.48;99597.53;5007258;28;7649;-73
2023/07/27 05:47:36;;;;;;;;;;;;;;;19.27;63.98;99588.88;4998337;28;6963;-73
2023/07/27 05:50:02;;;;;;;;;;;;;;;19.28;64.13;99590.59;5014885;28;7225;-73
2023/07/27 05:52:28;;;;;;;;;;;;;;;19.29;64.68;99591.47;4996837;28;7225;-73
2023/07/27 05:54:53;;;;;;;;;;;;;;;19.32;64.17;99590.63;4994817;28;9804;-73
2023/07/27 05:57:19;;;;;;;;;;;;;;;19.34;64.39;99594.09;4993824;28;6788;-73
2023/07/27 05:59:44;;;;;;;;;;;;;;;19.37;64.81;99586.28;4985549;28;6948;-73
2023/07/27 06:02:10;;;;;;;;;;;;;;;19.41;64.75;99585.38;5008479;28;6795;-73
2023/07/27 06:04:35;;;;;;;;;;;;;;;19.44;64.36;99582.81;5014938;28;7225;-73
2023/07/27 06:07:01;;;;;;;;;;;;;;;19.48;64.56;99576.72;4991806;28;7213;-73
2023/07/27 06:09:26;;;;;;;;;;;;;;;19.52;64.96;99575.88;4990897;28;7759;-72
2023/07/27 06:11:52;;;;;;;;;;;;;;;19.56;65.10;99577.56;5004909;28;7332;-73
2023/07/27 06:14:18;;;;;;;;;;;;;;;19.61;65.08;99574.13;4977911;28;7075;-73
2023/07/27 06:16:43;;;;;;;;;;;;;;;19.67;64.85;99572.38;4992351;28;7101;-71
2023/07/27 06:19:09;;;;;;;;;;;;;;;19.72;64.65;99574.94;4999773;28;6954;-76
2023/07/27 06:21:34;;;;;;;;;;;;;;;19.76;65.49;99571.47;4989043;28;7840;-76
2023/07/27 06:24:00;;;;;;;;;;;;;;;19.82;64.81;99579.25;4994595;28;7205;-75
2023/07/27 06:26:25;;;;;;;;;;;;;;;19.85;65.16;99566.22;4997065;28;7288;-77
2023/07/27 06:28:51;;;;;;;;;;;;;;;19.90;65.54;99566.22;5014816;28;6985;-76
2023/07/27 06:31:16;;;;;;;;;;;;;;;19.93;64.84;99565.34;4994302;28;6844;-76
2023/07/27 06:33:42;;;;;;;;;;;;;;;19.96;65.12;99568.84;5007986;28;6973;-72
2023/07/27 06:36:08;;;;;;;;;;;;;;;19.98;65.27;99564.50;4994464;28;6804;-75
2023/07/27 06:38:33;;;;;;;;;;;;;;;20.05;65.35;99561.88;4993329;28;6833;-76
2023/07/27 06:40:59;;;;;;;;;;;;;;;20.07;65.64;99553.16;4994880;28;6859;-76
2023/07/27 06:43:24;;;;;;;;;;;;;;;20.12;65.42;99559.22;4999167;28;6792;-74
2023/07/27 06:45:50;;;;;;;;;;;;;;;20.17;65.67;99551.41;4995585;28;7027;-75
2023/07/27 06:48:16;;;;;;;;;;;;;;;20.22;65.18;99556.59;4994835;28;7011;-77
2023/07/27 06:50:41;;;;;;;;;;;;;;;20.25;65.15;99557.44;4996229;28;7038;-72
2023/07/27 06:53:07;;;;;;;;;;;;;;;20.28;65.66;99553.97;5008409;28;6799;-75
2023/07/27 06:55:32;;;;;;;;;;;;;;;20.33;65.08;99561.72;4996680;28;6791;-74
2023/07/27 06:57:58;;;;;;;;;;;;;;;20.32;65.37;99550.44;4994127;28;7170;-75
2023/07/27 07:00:23;;;;;;;;;;;;;;;20.34;65.51;99548.69;5008808;28;10296;-74
2023/07/27 07:02:49;;;;;;;;;;;;;;;20.34;65.43;99546.09;4994882;28;6784;-75
2023/07/27 07:05:15;;;;;;;;;;;;;;;20.37;65.41;99542.63;5009100;28;6939;-74
2023/07/27 07:07:40;;;;;;;;;;;;;;;20.36;65.37;99551.31;4995088;28;6799;-75
2023/07/27 07:10:08;;;;;;;;;;;;;;;20.35;65.43;99541.78;5012087;28;6991;-76
2023/07/27 07:12:33;;;;;;;;;;;;;;;20.35;64.90;99544.38;4979951;28;7423;-76
2023/07/27 07:14:58;;;;;;;;;;;;;;;20.36;65.75;99539.13;4976023;28;6966;-72
2023/07/27 07:17:24;;;;;;;;;;;;;;;20.35;65.26;99542.63;4974517;28;7260;-75
2023/07/27 07:19:49;;;;;;;;;;;;;;;20.37;65.53;99533.06;4978108;28;6975;-72
2023/07/27 07:22:15;;;;;;;;;;;;;;;20.39;65.63;99533.94;4994232;28;6887;-75
2023/07/27 07:24:41;;;;;;;;;;;;;;;20.43;65.44;99539.13;5012521;28;6783;-72
2023/07/27 07:27:06;;;;;;;;;;;;;;;20.45;65.78;99527.81;4981687;28;6899;-75
2023/07/27 07:29:31;;;;;;;;;;;;;;;20.50;65.85;99525.19;5011969;28;6906;-77
2023/07/27 07:31:57;;;;;;;;;;;;;;;20.51;65.75;99527.75;5011642;28;6798;-76
2023/07/27 07:34:22;;;;;;;;;;;;;;;20.55;65.58;99526.00;4993266;28;6799;-76
2023/07/27 07:36:48;;;;;;;;;;;;;;;20.60;65.66;99531.19;4996857;28;6955;-75
2023/07/27 07:39:14;;;;;;;;;;;;;;;20.66;65.73;99526.78;5013056;28;6787;-73
2023/07/27 07:41:39;;;;;;;;;;;;;;;20.69;65.50;99531.13;4998192;28;6978;-77
2023/07/27 07:44:05;;;;;;;;;;;;;;;20.70;65.72;99521.59;4998084;28;7042;-74
2023/07/27 07:46:31;;;;;;;;;;;;;;;20.70;65.73;99513.78;5016732;28;6776;-76
2023/07/27 07:48:57;;;;;;;;;;;;;;;20.72;65.61;99518.09;4999799;28;7106;-74
2023/07/27 07:51:22;;;;;;;;;;;;;;;20.72;65.83;99512.88;5012815;28;7077;-75
2023/07/27 07:53:48;;;;;;;;;;;;;;;20.74;66.02;99520.66;4996550;28;6796;-76
2023/07/27 07:56:15;;;;;;;;;;;;;;;20.75;66.04;99512.84;5013589;28;7209;-76
2023/07/27 07:58:41;;;;;;;;;;;;;;;20.79;66.13;99509.34;4979719;28;7293;-75
2023/07/27 08:01:07;;;;;;;;;;;;;;;20.88;65.77;99503.25;5015097;28;6995;-77
2023/07/27 08:03:33;;;;;;;;;;;;;;;20.96;65.85;99508.38;4999848;28;6847;-76
2023/07/27 08:05:58;;;;;;;;;;;;;;;20.99;65.93;99510.94;5009831;28;6799;-75
2023/07/27 08:08:24;;;;;;;;;;;;;;;21.05;66.05;99510.88;5011245;28;7268;-76
2023/07/27 08:10:50;;;;;;;;;;;;;;;21.09;65.84;99509.13;5013225;28;7121;-77
2023/07/27 08:13:16;;;;;;;;;;;;;;;21.15;65.83;99493.44;5001718;28;6800;-75
2023/07/27 08:15:53;;;;;;;;;;;;;;;21.23;65.77;99509.00;5001696;28;6823;-77
2023/07/27 08:18:18;;;;;;;;;;;;;;;21.31;65.75;99515.00;5000701;28;7235;-76
2023/07/27 08:20:44;;;;;;;;;;;;;;;21.37;65.49;99511.44;4999248;28;7939;-75
2023/07/27 08:23:09;;;;;;;;;;;;;;;21.44;65.22;99513.13;4999083;28;6796;-76
2023/07/27 08:25:39;;;;;;;;;;;;;;;21.46;65.48;99506.13;5014895;28;6949;-76
2023/07/27 08:28:05;;;;;;;;;;;;;;;21.50;65.17;99515.63;5009740;28;6807;-75
2023/07/27 08:30:32;;;;;;;;;;;;;;;21.52;65.08;99520.84;5000722;28;6983;-73
2023/07/27 08:32:58;;;;;;;;;;;;;;;21.53;65.27;99512.13;5015361;28;7049;-76
2023/07/27 08:35:23;;;;;;;;;;;;;;;21.53;64.96;99509.53;4997335;28;7237;-75
2023/07/27 08:37:49;;;;;;;;;;;;;;;21.51;65.39;99504.31;5011383;28;7146;-69
2023/07/27 08:40:14;;;;;;;;;;;;;;;21.57;65.38;99503.38;5008158;28;6815;-71
2023/07/27 08:42:42;;;;;;;;;;;;;;;21.64;65.60;99499.00;4997449;28;6807;-69
2023/07/27 08:45:08;;;;;;;;;;;;;;;21.70;65.54;99491.09;4998403;28;6884;-71
2023/07/27 08:47:34;;;;;;;;;;;;;;;21.75;65.42;99491.94;5016305;28;7054;-69
2023/07/27 08:50:01;;;;;;;;;;;;;;;21.74;65.16;99498.03;5014718;28;6807;-68
2023/07/27 08:52:27;;;;;;;;;;;;;;;21.69;64.89;99499.81;4997985;28;7608;-69
2023/07/27 08:54:53;;;;;;;;;;;;;;;21.65;64.66;99495.50;5003565;28;6824;-70
2023/07/27 08:57:18;;;;;;;;;;;;;;;21.64;64.96;99504.22;5014425;28;6899;-69
2023/07/27 08:59:44;;;;;;;;;;;;;;;21.63;64.84;99498.13;4999223;28;6808;-69
2023/07/27 09:02:10;;;;;;;;;;;;;;;21.62;64.65;99505.94;5013441;28;6815;-71
2023/07/27 09:04:36;;;;;;;;;;;;;;;21.62;64.65;99500.72;4999805;28;6804;-69
2023/07/27 09:07:08;;;;;;;;;;;;;;;21.61;64.73;99505.09;5013582;28;7004;-70
2023/07/27 09:09:34;;;;;;;;;;;;;;;21.62;64.82;99503.34;4998695;28;7099;-70
2023/07/27 09:12:03;;;;;;;;;;;;;;;21.69;64.79;99502.41;4994637;28;6985;-72
2023/07/27 09:14:34;;;;;;;;;;;;;;;21.77;64.95;99497.97;4998764;28;7014;-72
2023/07/27 09:16:59;;;;;;;;;;;;;;;21.86;64.53;99496.13;4996233;28;8038;-70
2023/07/27 09:19:26;;;;;;;;;;;;;;;21.96;64.72;99502.09;4983839;28;6977;-69
2023/07/27 09:21:52;;;;;;;;;;;;;;;22.10;64.59;99494.06;4994793;28;6980;-69
2023/07/27 09:24:18;;;;;;;;;;;;;;;22.26;64.69;99497.31;4996909;28;7150;-70
2023/07/27 09:26:53;;;;;;;;;;;;;;;22.42;64.46;99487.53;4999953;28;6966;-70
2023/07/27 09:29:20;;;;;;;;;;;;;;;22.52;63.87;99494.38;4997301;28;6816;-71
2023/07/27 09:31:48;;;;;;;;;;;;;;;22.62;64.12;99487.22;5010038;28;6807;-68
2023/07/27 09:34:14;;;;;;;;;;;;;;;22.70;63.64;99495.81;5012953;28;6816;-68
2023/07/27 09:36:40;;;;;;;;;;;;;;;22.73;63.46;99487.91;4993456;28;6843;-68
2023/07/27 09:39:06;;;;;;;;;;;;;;;22.80;63.27;99488.69;5009301;28;6958;-69
2023/07/27 09:41:31;;;;;;;;;;;;;;;22.86;63.43;99491.19;5011637;28;6788;-68
2023/07/27 09:43:58;;;;;;;;;;;;;;;22.96;63.56;99489.28;4994743;28;6832;-72
2023/07/27 09:46:24;;;;;;;;;;;;;;;23.05;63.32;99485.63;4993941;28;6992;-69
2023/07/27 09:48:50;;;;;;;;;;;;;;;23.13;62.78;99490.69;4993966;28;7134;-69
2023/07/27 09:51:16;;;;;;;;;;;;;;;23.13;62.35;99486.34;4981021;28;7007;-70
2023/07/27 09:53:44;;;;;;;;;;;;;;;23.09;62.40;99486.44;5000255;28;6795;-69
2023/07/27 09:56:11;;;;;;;;;;;;;;;23.05;62.13;99482.16;4992067;28;6808;-69
2023/07/27 09:58:39;;;;;;;;;;;;;;;23.00;62.25;99484.88;4995948;28;6796;-68
2023/07/27 10:01:04;;;;;;;;;;;;;;;22.95;62.05;99487.56;4992362;28;6857;-69
2023/07/27 10:03:30;;;;;;;;;;;;;;;22.93;62.44;99489.31;5010541;28;6864;-69
2023/07/27 10:05:56;;;;;;;;;;;;;;;22.97;62.35;99493.63;4994129;28;7248;-71
2023/07/27 10:08:23;;;;;;;;;;;;;;;23.09;62.80;99492.53;4979806;28;7019;-70
2023/07/27 10:10:53;;;;;;;;;;;;;;;23.27;62.63;99477.38;4997741;28;7005;-70
2023/07/27 10:13:21;;;;;;;;;;;;;;;23.37;62.38;99492.06;4998457;28;6847;-68
2023/07/27 10:15:49;;;;;;;;;;;;;;;23.47;62.26;99478.78;4995767;28;6804;-71
2023/07/27 10:18:14;;;;;;;;;;;;;;;23.53;61.83;99481.28;4995963;28;7116;-70
2023/07/27 10:20:40;;;;;;;;;;;;;;;23.57;61.50;99485.56;5012024;28;6860;-70
2023/07/27 10:23:18;;;;;;;;;;;;;;;23.59;60.87;99491.63;5001244;28;6926;-70
2023/07/27 10:25:53;;;;;;;;;;;;;;;23.56;61.07;99483.81;5013087;28;7434;-70
2023/07/27 10:28:37;;;;;;;;;;;;;;;23.53;60.80;99500.44;4997296;28;6921;-69
2023/07/27 10:31:23;;;;;;;;;;;;;;;23.49;60.13;99503.16;4993330;28;7228;-70
2023/07/27 10:34:15;;;;;;;;;;;;;;;23.32;60.44;99504.34;4997236;28;6807;-72
2023/07/27 10:37:00;;;;;;;;;;;;;;;23.12;60.37;99512.50;4978644;28;7036;-71
2023/07/27 10:39:29;;;;;;;;;;;;;;;22.95;60.70;99516.28;4996221;28;7106;-69
2023/07/27 10:41:59;;;;;;;;;;;;;;;22.88;62.16;99515.50;5008213;28;6912;-70
2023/07/27 10:44:26;;;;;;;;;;;;;;;22.93;61.93;99514.59;5009832;28;6998;-70
2023/07/27 10:46:55;;;;;;;;;;;;;;;23.07;62.78;99512.59;4973928;28;7017;-72
2023/07/27 10:49:21;;;;;;;;;;;;;;;23.24;63.30;99509.69;4996263;28;6804;-70
2023/07/27 10:51:46;;;;;;;;;;;;;;;23.39;63.32;99500.72;5009236;28;7065;-70
2023/07/27 10:54:13;;;;;;;;;;;;;;;23.50;63.02;99504.88;4996037;28;10028;-72
2023/07/27 10:56:42;;;;;;;;;;;;;;;23.55;62.90;99503.88;4995416;28;6843;-69
2023/07/27 10:59:11;;;;;;;;;;;;;;;23.57;62.88;99499.47;4995535;28;6803;-70
2023/07/27 11:01:37;;;;;;;;;;;;;;;23.62;62.68;99491.53;4996144;28;6984;-69
2023/07/27 11:04:04;;;;;;;;;;;;;;;23.68;62.21;99491.44;4994158;28;6767;-70
2023/07/27 11:06:29;;;;;;;;;;;;;;;23.74;62.45;99497.41;4991690;28;6854;-69
2023/07/27 11:08:58;;;;;;;;;;;;;;;23.78;62.04;99488.63;4993590;28;6788;-69
2023/07/27 11:11:24;;;;;;;;;;;;;;;23.78;61.61;99496.47;4995340;28;7007;-70
2023/07/27 11:13:50;;;;;;;;;;;;;;;23.78;61.59;99488.63;5013408;28;9070;-69
2023/07/27 11:16:17;;;;;;;;;;;;;;;23.74;61.71;99486.94;4994700;28;7240;-70
2023/07/27 11:18:43;;;;;;;;;;;;;;;23.63;61.67;99485.41;4996489;28;6808;-72
2023/07/27 11:21:09;;;;;;;;;;;;;;;23.50;61.70;99489.19;5013041;28;6787;-69
2023/07/27 11:23:42;;;;;;;;;;;;;;;23.40;61.58;99493.72;4996838;28;8397;-71
2023/07/27 11:26:08;;;;;;;;;;;;;;;23.32;62.18;99491.28;4998710;28;7223;-73
2023/07/27 11:28:34;;;;;;;;;;;;;;;23.27;62.47;99487.84;5013831;28;6816;-69
2023/07/27 11:31:00;;;;;;;;;;;;;;;23.22;62.08;99489.69;5012656;28;6860;-70
2023/07/27 11:33:32;;;;;;;;;;;;;;;23.10;62.18;99483.81;5000842;28;7102;-70
2023/07/27 11:35:59;;;;;;;;;;;;;;;23.01;62.18;99482.22;5000205;28;6804;-72
2023/07/27 11:38:25;;;;;;;;;;;;;;;22.90;62.21;99492.00;5001325;28;6869;-72
2023/07/27 11:40:55;;;;;;;;;;;;;;;22.83;62.47;99495.59;5015135;28;6871;-71
2023/07/27 11:43:20;;;;;;;;;;;;;;;22.78;62.96;99489.59;5015120;28;7260;-70
2023/07/27 11:45:46;;;;;;;;;;;;;;;22.79;63.32;99497.41;4983280;28;7019;-68
2023/07/27 11:48:11;;;;;;;;;;;;;;;22.84;63.43;99492.97;4999873;28;6938;-70
2023/07/27 11:50:38;;;;;;;;;;;;;;;22.89;63.76;99488.53;4998512;28;7029;-71
2023/07/27 11:53:08;;;;;;;;;;;;;;;22.89;63.68;99495.50;5001358;28;6800;-70
2023/07/27 11:55:36;;;;;;;;;;;;;;;22.92;63.76;99497.19;4981664;28;7238;-69
2023/07/27 11:58:09;;;;;;;;;;;;;;;22.89;63.47;99493.75;5005093;28;7034;-70
2023/07/27 12:00:37;;;;;;;;;;;;;;;22.84;63.61;99494.69;4999546;28;7149;-72
2023/07/27 12:03:03;;;;;;;;;;;;;;;22.79;63.36;99494.81;4999847;28;6800;-70
2023/07/27 12:05:31;;;;;;;;;;;;;;;22.81;63.70;99503.47;4994883;28;7574;-69
2023/07/27 12:07:57;;;;;;;;;;;;;;;22.83;64.15;99493.84;4997609;28;6807;-70
2023/07/27 12:10:23;;;;;;;;;;;;;;;22.86;64.19;99499.00;4999710;28;8804;-72
2023/07/27 12:12:59;;;;;;;;;;;;;;;22.97;64.86;99492.75;4997735;28;6808;-69
2023/07/27 12:15:27;;;;;;;;;;;;;;;23.08;64.18;99498.66;4999214;28;7161;-69
2023/07/27 12:17:58;;;;;;;;;;;;;;;23.14;63.72;99498.53;4999040;28;6815;-71
2023/07/27 12:20:25;;;;;;;;;;;;;;;23.23;64.74;99497.50;4997385;28;6954;-70
2023/07/27 12:22:51;;;;;;;;;;;;;;;23.30;64.71;99488.66;5014257;28;6819;-71
2023/07/27 12:25:17;;;;;;;;;;;;;;;23.43;64.31;99491.06;4986927;28;7047;-70
2023/07/27 12:27:42;;;;;;;;;;;;;;;23.53;64.21;99495.22;4982979;28;7021;-70
2023/07/27 12:30:09;;;;;;;;;;;;;;;23.55;64.42;99493.44;4991093;28;7084;-70
2023/07/27 12:32:35;;;;;;;;;;;;;;;23.56;63.84;99489.03;4996257;28;11654;-70
2023/07/27 12:35:01;;;;;;;;;;;;;;;23.54;63.99;99489.09;4991573;28;6887;-69
2023/07/27 12:37:27;;;;;;;;;;;;;;;23.53;63.89;99481.28;5009217;28;7214;-69
2023/07/27 12:39:52;;;;;;;;;;;;;;;23.50;64.10;99481.34;5004849;28;7204;-71
2023/07/27 12:42:18;;;;;;;;;;;;;;;23.48;64.12;99481.38;4984831;28;6815;-71
2023/07/27 12:44:43;;;;;;;;;;;;;;;23.53;64.13;99489.13;4982954;28;6971;-69
2023/07/27 12:47:09;;;;;;;;;;;;;;;23.56;63.86;99494.28;4999196;28;6792;-72
2023/07/27 12:49:34;;;;;;;;;;;;;;;23.54;64.23;99480.38;4997581;28;6864;-72
2023/07/27 12:52:00;;;;;;;;;;;;;;;23.50;63.81;99489.19;4995704;28;6804;-72
2023/07/27 12:54:25;;;;;;;;;;;;;;;23.43;63.53;99489.31;4981421;28;7209;-70
2023/07/27 12:56:51;;;;;;;;;;;;;;;23.41;64.19;99491.09;5012939;28;6799;-72